Time;durP1;ratioP1;P1;durP2;ratioP2;P2;SDS_P1;SDS_P2;PMS_P1;PMS_P2;Temp;Humidity;BMP_temperature;BMP_pressure;BME280_temperature;BME280_humidity;BME280_pressure;Samples;Min_cycle;Max_cycle;Signal;HPM_P1;HPM_P2
2023/09/01 00:02:24;;;;;;;10.35;3.88;;;;;;;15.76;76.33;101098.16;4985943;28;20027;-67
2023/09/01 00:04:49;;;;;;;7.20;3.78;;;;;;;15.81;76.00;101104.97;4989993;28;20439;-67
2023/09/01 00:07:14;;;;;;;5.88;3.67;;;;;;;15.79;74.71;101090.84;4984264;28;20271;-67
2023/09/01 00:09:40;;;;;;;10.02;3.90;;;;;;;15.69;75.28;101084.34;4988663;28;20491;-67
2023/09/01 00:12:05;;;;;;;5.85;3.95;;;;;;;15.52;75.76;101084.41;4986673;28;20385;-67
2023/09/01 00:14:31;;;;;;;8.15;4.03;;;;;;;15.41;77.05;101074.34;4986477;28;20030;-67
2023/09/01 00:16:56;;;;;;;7.13;3.95;;;;;;;15.50;76.63;101075.66;4997869;28;20064;-67
2023/09/01 00:19:23;;;;;;;7.32;4.00;;;;;;;15.51;75.07;101072.88;4995424;28;20371;-67
2023/09/01 00:21:49;;;;;;;7.32;3.95;;;;;;;15.51;75.73;101072.03;4992269;28;20425;-67
2023/09/01 00:24:14;;;;;;;7.80;4.30;;;;;;;15.45;75.30;101075.06;4993934;28;20038;-67
2023/09/01 00:26:39;;;;;;;7.45;4.18;;;;;;;15.44;75.25;101087.53;4994186;28;20393;-68
2023/09/01 00:29:05;;;;;;;8.43;4.32;;;;;;;15.40;75.79;101077.13;4995547;28;20025;-67
2023/09/01 00:31:30;;;;;;;6.80;4.03;;;;;;;15.31;75.72;101068.69;4975159;28;20030;-67
2023/09/01 00:33:55;;;;;;;6.03;4.22;;;;;;;15.34;75.92;101074.78;4990789;28;20026;-67
2023/09/01 00:36:20;;;;;;;8.95;4.47;;;;;;;15.20;77.00;101067.56;4996894;28;20025;-67
2023/09/01 00:38:46;;;;;;;12.70;4.80;;;;;;;15.16;77.49;101066.91;4990935;28;20544;-67
2023/09/01 00:41:11;;;;;;;7.85;4.25;;;;;;;15.18;77.26;101072.97;4993721;28;20032;-67
2023/09/01 00:43:36;;;;;;;10.88;4.93;;;;;;;15.21;77.30;101064.84;4993828;28;20029;-67
2023/09/01 00:46:02;;;;;;;6.80;4.65;;;;;;;15.19;77.91;101061.38;4987776;28;20118;-67
2023/09/01 00:48:27;;;;;;;8.05;5.55;;;;;;;15.13;78.24;101051.06;5000170;28;20138;-67
2023/09/01 00:50:53;;;;;;;9.35;4.63;;;;;;;15.14;78.08;101050.13;4989679;28;20409;-67
2023/09/01 00:53:19;;;;;;;9.13;4.55;;;;;;;15.07;77.86;101046.09;4987022;28;20285;-67
2023/09/01 00:55:45;;;;;;;8.23;4.68;;;;;;;14.99;78.14;101045.66;4989662;28;20037;-67
2023/09/01 00:58:11;;;;;;;5.55;4.70;;;;;;;14.98;78.43;101047.47;4988005;28;20515;-68
2023/09/01 01:00:36;;;;;;;9.93;4.47;;;;;;;15.02;78.09;101046.34;4991756;28;20053;-67
2023/09/01 01:03:04;;;;;;;8.85;4.68;;;;;;;14.94;78.39;101043.25;4992340;28;20030;-67
2023/09/01 01:05:51;;;;;;;13.02;5.22;;;;;;;15.04;77.83;101055.09;4990071;28;20026;-67
2023/09/01 01:08:35;;;;;;;7.95;4.55;;;;;;;15.06;77.95;101052.34;4988006;28;20026;-67
2023/09/01 01:11:14;;;;;;;7.90;5.07;;;;;;;15.10;78.09;101058.38;4991939;28;20034;-67
2023/09/01 01:13:46;;;;;;;8.13;4.50;;;;;;;15.08;78.31;101065.59;4982507;28;20058;-67
2023/09/01 01:16:16;;;;;;;6.15;4.70;;;;;;;15.26;77.48;101070.75;4993046;28;20520;-67
2023/09/01 01:18:43;;;;;;;9.00;4.75;;;;;;;15.35;76.87;101066.72;4991382;28;20488;-67
2023/09/01 01:21:21;;;;;;;7.15;4.47;;;;;;;15.39;77.38;101072.72;4986758;28;20501;-67
2023/09/01 01:23:46;;;;;;;6.45;4.72;;;;;;;15.37;77.75;101069.28;4986098;28;20496;-67
2023/09/01 01:26:15;;;;;;;10.27;4.93;;;;;;;15.22;78.06;101065.69;4989545;28;20030;-67
2023/09/01 01:28:40;;;;;;;7.57;4.68;;;;;;;15.25;77.28;101066.38;4989007;28;20485;-67
2023/09/01 01:31:06;;;;;;;7.95;4.45;;;;;;;15.22;77.55;101071.88;4991735;28;20032;-67
2023/09/01 01:33:50;;;;;;;7.75;4.30;;;;;;;15.40;77.44;101064.66;4987555;28;20041;-66
2023/09/01 01:36:27;;;;;;;8.68;4.38;;;;;;;15.21;77.99;101058.66;4989953;28;20490;-67
2023/09/01 01:39:04;;;;;;;11.02;5.10;;;;;;;15.14;79.18;101055.44;4993343;28;20030;-67
2023/09/01 01:41:53;;;;;;;8.48;4.75;;;;;;;15.30;77.94;101061.66;4991987;28;20056;-66
2023/09/01 01:44:24;;;;;;;8.57;4.70;;;;;;;15.29;78.31;101075.94;4985666;28;20042;-68
2023/09/01 01:46:50;;;;;;;7.55;4.60;;;;;;;15.32;77.32;101070.41;4990229;28;20062;-67
2023/09/01 01:49:16;;;;;;;10.40;4.72;;;;;;;15.31;77.46;101071.34;4996415;28;20529;-67
2023/09/01 01:51:41;;;;;;;9.07;4.82;;;;;;;15.28;77.38;101073.31;4991000;28;20046;-68
2023/09/01 01:54:07;;;;;;;7.70;5.05;;;;;;;15.31;77.45;101075.84;4991140;28;20037;-67
2023/09/01 01:56:32;;;;;;;6.80;4.30;;;;;;;15.35;77.57;101073.84;4992748;28;20532;-67
2023/09/01 01:58:58;;;;;;;8.38;5.05;;;;;;;15.38;77.59;101069.19;4986963;28;20109;-67
2023/09/01 02:01:23;;;;;;;8.07;5.55;;;;;;;15.13;78.67;101074.19;4988431;28;20026;-67
2023/09/01 02:03:48;;;;;;;11.88;5.45;;;;;;;15.11;79.09;101066.28;4987840;28;20113;-67
2023/09/01 02:06:14;;;;;;;12.05;4.93;;;;;;;15.18;79.05;101062.31;4996603;28;20029;-67
2023/09/01 02:08:39;;;;;;;11.95;4.95;;;;;;;15.23;78.43;101057.59;4982010;28;20171;-67
2023/09/01 02:11:04;;;;;;;11.60;6.00;;;;;;;15.20;79.16;101059.56;4986402;28;20030;-67
2023/09/01 02:13:30;;;;;;;11.38;5.15;;;;;;;15.14;78.47;101055.44;4988750;28;20873;-67
2023/09/01 02:15:55;;;;;;;17.70;5.30;;;;;;;15.17;78.36;101059.75;4990607;28;20064;-67
2023/09/01 02:18:21;;;;;;;12.88;5.22;;;;;;;15.16;77.92;101056.25;4987096;28;20037;-67
2023/09/01 02:20:47;;;;;;;10.13;4.82;;;;;;;15.13;78.55;101052.88;4992932;28;20041;-67
2023/09/01 02:23:19;;;;;;;7.70;4.63;;;;;;;15.24;77.97;101053.13;4986594;28;20549;-67
2023/09/01 02:25:45;;;;;;;10.15;5.20;;;;;;;15.11;79.25;101049.44;4987789;28;20032;-67
2023/09/01 02:28:11;;;;;;;10.45;5.55;;;;;;;15.25;79.17;101058.41;4991524;28;20018;-67
2023/09/01 02:30:36;;;;;;;11.50;5.70;;;;;;;15.28;78.95;101055.53;4989791;28;20544;-66
2023/09/01 02:33:02;;;;;;;10.80;5.85;;;;;;;15.38;78.84;101057.69;4990078;28;20061;-67
2023/09/01 02:35:27;;;;;;;13.57;5.93;;;;;;;15.31;79.62;101054.53;4989582;28;20061;-67
2023/09/01 02:37:53;;;;;;;10.07;5.65;;;;;;;15.37;79.24;101047.97;4998872;28;20434;-67
2023/09/01 02:40:19;;;;;;;8.82;5.55;;;;;;;15.38;78.52;101042.56;4996700;28;20025;-67
2023/09/01 02:42:44;;;;;;;8.32;5.10;;;;;;;15.40;77.86;101046.00;4994469;28;20041;-67
2023/09/01 02:45:12;;;;;;;11.02;5.95;;;;;;;15.38;78.72;101047.03;4987018;28;20030;-67
2023/09/01 02:47:37;;;;;;;8.13;5.50;;;;;;;15.38;78.79;101044.34;4989346;28;20054;-67
2023/09/01 02:50:06;;;;;;;11.75;5.78;;;;;;;15.43;79.12;101035.16;4990460;28;20062;-67
2023/09/01 02:52:32;;;;;;;11.95;5.22;;;;;;;15.40;79.33;101032.69;4986044;28;20105;-67
2023/09/01 02:54:58;;;;;;;10.20;5.57;;;;;;;15.36;79.54;101046.28;4988852;28;20537;-67
2023/09/01 02:57:23;;;;;;;10.90;6.05;;;;;;;15.37;78.71;101042.66;4991920;28;20038;-67
2023/09/01 02:59:50;;;;;;;10.77;6.03;;;;;;;15.35;79.35;101048.06;4989911;28;20030;-67
2023/09/01 03:02:15;;;;;;;12.25;6.22;;;;;;;15.38;79.23;101047.03;4983646;28;20752;-67
2023/09/01 03:04:41;;;;;;;10.10;5.20;;;;;;;15.45;77.78;101046.59;4987503;28;20025;-67
2023/09/01 03:07:07;;;;;;;9.65;5.63;;;;;;;15.48;78.33;101042.88;4996654;28;20034;-68
2023/09/01 03:09:32;;;;;;;11.73;6.25;;;;;;;15.46;78.73;101042.13;4991580;28;20018;-67
2023/09/01 03:11:57;;;;;;;13.10;6.35;;;;;;;15.38;79.48;101041.69;4992337;28;20033;-67
2023/09/01 03:14:23;;;;;;;12.38;6.93;;;;;;;15.29;79.63;101035.97;4989319;28;20516;-68
2023/09/01 03:16:49;;;;;;;10.40;6.00;;;;;;;15.05;80.27;101030.19;4986015;28;20030;-68
2023/09/01 03:19:14;;;;;;;10.80;6.35;;;;;;;15.02;81.49;101035.72;4985375;28;20021;-68
2023/09/01 03:21:40;;;;;;;11.20;5.95;;;;;;;15.02;81.24;101034.84;4994771;28;20539;-67
2023/09/01 03:24:06;;;;;;;9.68;6.43;;;;;;;15.00;81.25;101037.56;4989238;28;20089;-68
2023/09/01 03:26:31;;;;;;;10.10;6.15;;;;;;;15.07;80.85;101035.44;4985378;28;20469;-68
2023/09/01 03:28:56;;;;;;;12.73;6.38;;;;;;;15.11;81.17;101033.44;4992065;28;20770;-67
2023/09/01 03:31:22;;;;;;;8.70;6.07;;;;;;;15.14;80.86;101033.28;4991127;28;20030;-68
2023/09/01 03:33:47;;;;;;;14.25;6.15;;;;;;;15.17;80.97;101039.31;4985858;28;20395;-67
2023/09/01 03:36:13;;;;;;;9.00;6.13;;;;;;;15.16;81.08;101034.94;4987928;28;20041;-68
2023/09/01 03:38:39;;;;;;;11.85;6.45;;;;;;;15.14;81.38;101031.47;4990059;28;20058;-68
2023/09/01 03:41:05;;;;;;;10.65;6.40;;;;;;;15.18;80.79;101030.38;4989423;28;20030;-67
2023/09/01 03:43:31;;;;;;;9.93;5.85;;;;;;;15.20;80.90;101020.50;4985766;28;20457;-67
2023/09/01 03:45:57;;;;;;;8.88;5.90;;;;;;;15.22;81.51;101015.09;4986072;28;20109;-68
2023/09/01 03:48:23;;;;;;;9.73;5.80;;;;;;;15.25;81.09;101020.25;4989752;28;20690;-67
2023/09/01 03:51:27;;;;;;;12.55;6.45;;;;;;;15.37;80.58;101027.53;4987118;28;20038;-68
2023/09/01 03:53:52;;;;;;;8.10;5.35;;;;;;;15.34;80.37;101029.50;4888630;29;20056;-68
2023/09/01 03:56:19;;;;;;;8.93;5.60;;;;;;;15.34;80.84;101025.06;4891673;29;20040;-68
2023/09/01 03:58:45;;;;;;;8.82;5.55;;;;;;;15.40;80.41;101024.69;4933571;28;20027;-68
2023/09/01 04:01:11;;;;;;;7.32;5.15;;;;;;;15.43;79.65;101021.81;4989303;28;20355;-68
2023/09/01 04:03:44;;;;;;;8.88;5.72;;;;;;;15.44;80.32;101012.06;4986088;28;20037;-67
2023/09/01 04:06:10;;;;;;;9.07;5.32;;;;;;;15.43;80.46;101013.84;4990164;28;20018;-68
2023/09/01 04:08:36;;;;;;;9.70;5.80;;;;;;;15.43;80.66;101011.16;4985826;28;20049;-68
2023/09/01 04:11:03;;;;;;;10.85;5.82;;;;;;;15.32;81.21;101016.28;4984907;28;20557;-67
2023/09/01 04:13:28;;;;;;;9.05;6.50;;;;;;;15.26;81.35;101006.84;4980732;28;20489;-67
2023/09/01 04:15:55;;;;;;;8.00;5.30;;;;;;;15.26;81.58;101006.84;4982892;28;20026;-68
2023/09/01 04:18:21;;;;;;;10.20;5.38;;;;;;;15.35;81.26;101005.44;4983413;28;20533;-68
2023/09/01 04:20:48;;;;;;;11.52;6.38;;;;;;;15.37;82.04;101014.19;4987615;28;20069;-68
2023/09/01 04:23:14;;;;;;;8.57;5.80;;;;;;;15.41;81.16;101014.88;4991013;28;20026;-67
2023/09/01 04:25:39;;;;;;;10.85;6.00;;;;;;;15.40;81.87;101008.72;4989904;28;20056;-67
2023/09/01 04:28:04;;;;;;;8.63;5.57;;;;;;;15.48;81.21;101011.78;4990868;28;20025;-66
2023/09/01 04:30:30;;;;;;;10.38;5.88;;;;;;;15.48;80.75;101008.25;4991225;28;20497;-67
2023/09/01 04:32:55;;;;;;;8.50;5.03;;;;;;;15.48;81.06;101008.25;4984913;28;20378;-67
2023/09/01 04:35:21;;;;;;;15.50;6.13;;;;;;;15.41;81.94;101004.22;4990772;28;20030;-66
2023/09/01 04:37:46;;;;;;;11.25;6.35;;;;;;;15.32;82.87;101011.78;4992590;28;20474;-67
2023/09/01 04:40:11;;;;;;;9.02;5.35;;;;;;;15.38;81.65;101002.59;4986895;28;20025;-66
2023/09/01 04:42:37;;;;;;;10.15;6.30;;;;;;;15.48;82.05;101005.56;4985470;28;20030;-67
2023/09/01 04:45:03;;;;;;;10.13;6.07;;;;;;;15.54;82.04;101015.91;4986119;28;20023;-66
2023/09/01 04:47:29;;;;;;;9.20;5.35;;;;;;;15.67;81.57;101024.09;4984651;28;20026;-67
2023/09/01 04:49:55;;;;;;;8.02;4.90;;;;;;;15.71;80.21;101010.47;4983614;28;20049;-66
2023/09/01 04:52:20;;;;;;;9.27;5.60;;;;;;;15.79;79.96;101012.69;4983474;28;20022;-67
2023/09/01 04:54:46;;;;;;;8.60;5.40;;;;;;;15.78;79.95;101014.50;4985226;28;20417;-67
2023/09/01 04:57:11;;;;;;;10.98;5.50;;;;;;;15.80;81.28;101017.91;4986475;28;20491;-67
2023/09/01 04:59:36;;;;;;;10.38;5.57;;;;;;;15.54;81.81;101018.56;4989408;28;20050;-67
2023/09/01 05:02:01;;;;;;;6.63;5.18;;;;;;;15.55;81.46;101018.47;4988923;28;20076;-66
2023/09/01 05:04:27;;;;;;;6.75;5.35;;;;;;;15.75;80.76;101011.13;4996479;28;20037;-67
2023/09/01 05:06:53;;;;;;;9.57;5.85;;;;;;;15.74;81.21;101015.63;4989020;28;20069;-66
2023/09/01 05:09:19;;;;;;;8.90;5.93;;;;;;;15.67;81.89;101016.94;4997075;28;20490;-66
2023/09/01 05:11:44;;;;;;;10.20;6.60;;;;;;;15.63;82.20;101018.03;4990343;28;20470;-67
2023/09/01 05:14:09;;;;;;;8.75;5.68;;;;;;;15.62;81.50;101015.44;4992474;28;20033;-67
2023/09/01 05:16:34;;;;;;;7.90;6.10;;;;;;;15.68;81.31;101025.78;4993233;28;20027;-67
2023/09/01 05:19:00;;;;;;;10.02;6.13;;;;;;;15.72;80.64;101019.34;4990255;28;20034;-67
2023/09/01 05:21:25;;;;;;;8.05;5.55;;;;;;;15.79;80.85;101013.53;4994527;28;20027;-66
2023/09/01 05:23:50;;;;;;;7.18;5.65;;;;;;;15.84;81.25;101012.41;4989243;28;20030;-66
2023/09/01 05:26:16;;;;;;;13.60;5.93;;;;;;;15.89;80.32;101015.66;4989922;28;20955;-67
2023/09/01 05:28:41;;;;;;;7.82;5.35;;;;;;;15.92;80.98;101011.00;4992164;28;20026;-67
2023/09/01 05:31:06;;;;;;;10.18;6.22;;;;;;;15.95;80.76;101015.31;4988419;28;20034;-67
2023/09/01 05:33:31;;;;;;;11.10;6.00;;;;;;;15.96;81.08;101015.22;4988577;28;20725;-68
2023/09/01 05:35:57;;;;;;;10.05;5.75;;;;;;;16.00;80.60;101023.91;4989993;28;20038;-68
2023/09/01 05:38:22;;;;;;;11.15;6.10;;;;;;;16.01;80.68;101023.78;4993233;28;20034;-68
2023/09/01 05:40:58;;;;;;;9.27;6.00;;;;;;;16.05;80.83;101024.47;4988274;28;20398;-68
2023/09/01 05:43:28;;;;;;;10.63;6.53;;;;;;;15.96;82.23;101028.53;4992753;28;20030;-68
2023/09/01 05:45:54;;;;;;;10.75;7.13;;;;;;;15.95;82.34;101029.50;4988138;28;20030;-67
2023/09/01 05:48:19;;;;;;;10.63;6.65;;;;;;;15.99;81.43;101030.16;4989041;28;20401;-67
2023/09/01 05:50:44;;;;;;;8.68;6.00;;;;;;;16.01;81.30;101028.28;4987598;28;20043;-67
2023/09/01 05:53:10;;;;;;;10.63;6.60;;;;;;;16.09;81.19;101023.34;4987718;28;20088;-67
2023/09/01 05:55:39;;;;;;;9.88;6.40;;;;;;;16.09;81.41;101028.69;4985493;28;20022;-68
2023/09/01 05:58:04;;;;;;;6.35;5.53;;;;;;;16.08;80.61;101019.78;4987674;28;20030;-68
2023/09/01 06:00:29;;;;;;;10.68;6.38;;;;;;;16.15;81.42;101016.78;4985381;28;20042;-67
2023/09/01 06:02:56;;;;;;;9.98;5.95;;;;;;;16.22;81.25;101018.94;4982341;28;20372;-68
2023/09/01 06:05:21;;;;;;;8.38;5.63;;;;;;;16.28;80.80;101015.94;4991701;28;20553;-68
2023/09/01 06:07:47;;;;;;;10.02;6.57;;;;;;;16.36;80.85;101017.25;4995006;28;20320;-68
2023/09/01 06:10:13;;;;;;;7.38;5.70;;;;;;;16.41;81.24;101018.69;4990571;28;20121;-68
2023/09/01 06:12:38;;;;;;;10.07;5.80;;;;;;;16.45;81.55;101020.22;4991170;28;20112;-68
2023/09/01 06:15:05;;;;;;;6.65;5.55;;;;;;;16.47;80.51;101022.81;4989430;28;20022;-68
2023/09/01 06:17:30;;;;;;;9.18;6.30;;;;;;;16.50;80.01;101025.28;4983315;28;20056;-68
2023/09/01 06:19:55;;;;;;;11.05;6.38;;;;;;;16.56;81.17;101025.75;4985500;28;20108;-67
2023/09/01 06:22:21;;;;;;;8.40;6.00;;;;;;;16.59;80.56;101022.03;4987788;28;21072;-68
2023/09/01 06:24:46;;;;;;;11.95;7.10;;;;;;;16.58;80.41;101025.66;4991067;28;20109;-68
2023/09/01 06:27:12;;;;;;;8.77;5.93;;;;;;;16.60;80.80;101029.09;4992584;28;20437;-68
2023/09/01 06:29:37;;;;;;;8.70;6.00;;;;;;;16.55;79.65;101032.06;4989219;28;20114;-68
2023/09/01 06:32:02;;;;;;;9.50;6.53;;;;;;;16.58;80.66;101041.69;4990060;28;20466;-68
2023/09/01 06:34:28;;;;;;;8.15;6.53;;;;;;;16.56;80.43;101044.44;4990308;28;20157;-68
2023/09/01 06:36:53;;;;;;;10.10;6.68;;;;;;;16.56;80.24;101038.25;4993662;28;20458;-68
2023/09/01 06:39:18;;;;;;;11.68;7.07;;;;;;;16.56;81.43;101040.94;4991883;28;20418;-68
2023/09/01 06:41:46;;;;;;;8.43;6.40;;;;;;;16.58;82.29;101041.69;4990966;28;20033;-68
2023/09/01 06:44:11;;;;;;;11.48;7.32;;;;;;;16.59;82.24;101033.56;4987507;28;20053;-68
2023/09/01 06:46:36;;;;;;;9.05;6.72;;;;;;;16.58;81.50;101036.34;4989147;28;20101;-68
2023/09/01 06:49:02;;;;;;;11.45;6.50;;;;;;;16.60;80.75;101042.44;4988053;28;20026;-68
2023/09/01 06:51:29;;;;;;;9.82;6.80;;;;;;;16.65;81.61;101047.50;4994842;28;20432;-68
2023/09/01 06:53:54;;;;;;;11.02;7.05;;;;;;;16.69;82.32;101043.66;4994325;28;20040;-68
2023/09/01 06:56:20;;;;;;;10.27;7.00;;;;;;;16.71;81.64;101041.78;4986242;28;20034;-68
2023/09/01 06:58:45;;;;;;;9.48;7.60;;;;;;;16.71;82.60;101044.44;4991156;28;20041;-68
2023/09/01 07:01:11;;;;;;;9.88;6.88;;;;;;;16.75;81.82;101046.00;4983951;28;20125;-68
2023/09/01 07:03:37;;;;;;;11.90;7.63;;;;;;;16.77;82.44;101044.94;4991361;28;20060;-68
2023/09/01 07:06:03;;;;;;;10.00;7.45;;;;;;;16.78;82.50;101035.13;4987882;28;20041;-68
2023/09/01 07:08:29;;;;;;;10.73;7.30;;;;;;;16.80;82.36;101033.22;4987335;28;20500;-68
2023/09/01 07:11:02;;;;;;;11.00;7.50;;;;;;;16.78;82.20;101033.28;4994032;28;20018;-68
2023/09/01 07:13:28;;;;;;;11.30;8.07;;;;;;;16.74;82.54;101022.91;4986207;28;20465;-68
2023/09/01 07:15:53;;;;;;;9.20;7.75;;;;;;;16.77;83.44;101018.25;4988110;28;20091;-68
2023/09/01 07:18:18;;;;;;;13.65;8.20;;;;;;;16.79;83.14;101008.34;4991021;28;20029;-68
2023/09/01 07:20:46;;;;;;;12.57;7.85;;;;;;;16.82;82.72;101023.28;4986864;28;20022;-68
2023/09/01 07:23:11;;;;;;;10.80;7.15;;;;;;;16.85;81.54;101020.44;4992217;28;20113;-68
2023/09/01 07:25:36;;;;;;;10.35;8.68;;;;;;;16.86;82.80;101019.47;4995264;28;20112;-66
2023/09/01 07:28:02;;;;;;;9.88;7.88;;;;;;;16.92;82.78;101027.09;4985335;28;20387;-66
2023/09/01 07:30:31;;;;;;;12.80;7.43;;;;;;;16.92;81.74;101021.75;4990870;28;20406;-66
2023/09/01 07:32:56;;;;;;;11.23;8.05;;;;;;;16.94;83.53;101019.84;4989481;28;20477;-66
2023/09/01 07:35:22;;;;;;;11.73;7.15;;;;;;;16.97;82.54;101021.44;4996216;28;20030;-67
2023/09/01 07:37:47;;;;;;;10.13;7.95;;;;;;;16.97;82.56;101021.44;4990361;28;20308;-67
2023/09/01 07:40:13;;;;;;;10.10;7.53;;;;;;;16.96;82.01;101017.06;4986810;28;20037;-66
2023/09/01 07:42:38;;;;;;;10.93;8.10;;;;;;;16.90;83.16;101013.00;4990450;28;20121;-65
2023/09/01 07:45:04;;;;;;;11.38;8.40;;;;;;;16.94;83.30;101017.19;4985407;28;20034;-67
2023/09/01 07:47:29;;;;;;;13.95;8.98;;;;;;;16.92;84.53;101012.88;4985788;28;20394;-66
2023/09/01 07:49:55;;;;;;;12.05;8.52;;;;;;;16.94;84.70;101017.19;4984979;28;20565;-67
2023/09/01 07:52:20;;;;;;;12.80;8.23;;;;;;;16.97;83.65;101018.78;4994163;28;20028;-66
2023/09/01 07:54:45;;;;;;;12.77;9.05;;;;;;;16.98;84.53;101013.38;4990597;28;20481;-66
2023/09/01 07:57:10;;;;;;;15.10;9.60;;;;;;;16.97;85.62;101017.00;4987652;28;20058;-66
2023/09/01 07:59:36;;;;;;;13.48;9.55;;;;;;;16.94;84.63;101016.31;4994635;28;20029;-66
2023/09/01 08:02:01;;;;;;;15.52;9.63;;;;;;;16.89;85.20;101018.44;4989518;28;20389;-66
2023/09/01 08:04:26;;;;;;;10.43;8.77;;;;;;;16.87;85.54;101026.53;4997155;28;20085;-66
2023/09/01 08:06:51;;;;;;;12.10;9.68;;;;;;;16.87;85.29;101026.53;4984052;28;20512;-66
2023/09/01 08:09:17;;;;;;;14.93;10.23;;;;;;;16.87;85.14;101026.53;4986434;28;20081;-67
2023/09/01 08:11:42;;;;;;;11.02;9.00;;;;;;;16.90;85.45;101033.50;4984252;28;20029;-66
2023/09/01 08:14:07;;;;;;;16.20;9.65;;;;;;;16.91;85.48;101037.88;4982848;28;20073;-67
2023/09/01 08:16:32;;;;;;;12.95;9.48;;;;;;;16.91;84.49;101041.41;4989473;28;20053;-68
2023/09/01 08:18:59;;;;;;;12.45;8.95;;;;;;;16.98;85.87;101047.22;4985662;28;20394;-68
2023/09/01 08:21:24;;;;;;;11.43;9.80;;;;;;;16.97;85.33;101059.72;4988092;28;20031;-68
2023/09/01 08:23:50;;;;;;;12.35;10.00;;;;;;;16.99;85.79;101055.13;4994657;28;20053;-68
2023/09/01 08:26:16;;;;;;;13.15;9.75;;;;;;;17.03;85.58;101053.13;4990144;28;20018;-68
2023/09/01 08:28:41;;;;;;;14.10;9.55;;;;;;;17.03;85.55;101053.13;4989952;28;20018;-68
2023/09/01 08:31:06;;;;;;;12.85;9.23;;;;;;;17.06;85.54;101047.56;4992657;28;20032;-67
2023/09/01 08:33:32;;;;;;;13.85;10.23;;;;;;;17.06;86.02;101048.44;4987422;28;20022;-67
2023/09/01 08:36:03;;;;;;;13.70;10.00;;;;;;;17.08;86.13;101057.22;4988790;28;20022;-67
2023/09/01 08:38:29;;;;;;;12.17;10.07;;;;;;;17.12;86.17;101057.03;4993585;28;20519;-67
2023/09/01 08:41:03;;;;;;;10.18;8.20;;;;;;;17.16;84.71;101062.09;4989235;28;20026;-67
2023/09/01 08:43:33;;;;;;;10.82;8.65;;;;;;;17.22;85.53;101067.03;4990295;28;20022;-67
2023/09/01 08:45:59;;;;;;;12.93;10.05;;;;;;;17.25;86.84;101065.94;4991128;28;20022;-68
2023/09/01 08:48:25;;;;;;;11.77;9.63;;;;;;;17.25;85.75;101072.19;4993696;28;20026;-67
2023/09/01 08:50:51;;;;;;;11.43;8.88;;;;;;;17.28;83.99;101066.63;4989936;28;20045;-67
2023/09/01 08:53:18;;;;;;;10.23;9.10;;;;;;;17.33;85.58;101074.34;4994467;28;20470;-68
2023/09/01 08:55:43;;;;;;;13.80;9.50;;;;;;;17.35;85.84;101083.13;4993131;28;20065;-67
2023/09/01 08:58:09;;;;;;;12.43;8.95;;;;;;;17.38;84.86;101080.25;4990242;28;20125;-66
2023/09/01 09:00:34;;;;;;;10.77;8.20;;;;;;;17.41;82.96;101080.06;4982144;28;20084;-67
2023/09/01 09:03:00;;;;;;;10.25;8.32;;;;;;;17.43;84.22;101080.78;4988824;28;20411;-66
2023/09/01 09:05:27;;;;;;;11.85;9.60;;;;;;;17.41;85.77;101081.88;4997442;28;20030;-66
2023/09/01 09:08:00;;;;;;;10.55;9.10;;;;;;;17.34;84.88;101084.06;4988218;28;20041;-66
2023/09/01 09:10:37;;;;;;;14.40;9.48;;;;;;;17.37;84.99;101077.69;4994747;28;20023;-66
2023/09/01 09:13:31;;;;;;;10.68;8.90;;;;;;;17.41;84.70;101079.19;4984955;28;20022;-66
2023/09/01 09:16:12;;;;;;;11.68;10.10;;;;;;;17.34;86.42;101092.09;4987973;28;20038;-66
2023/09/01 09:18:40;;;;;;;11.45;9.52;;;;;;;17.27;84.94;101086.28;4986078;28;20030;-66
2023/09/01 09:21:24;;;;;;;10.70;9.60;;;;;;;17.29;85.30;101079.00;4991161;28;20493;-65
2023/09/01 09:23:49;;;;;;;11.15;9.98;;;;;;;17.24;86.02;101082.94;4995334;28;20520;-67
2023/09/01 09:26:15;;;;;;;10.95;9.63;;;;;;;17.26;86.85;101089.06;4990049;28;20105;-67
2023/09/01 09:28:40;;;;;;;11.82;10.20;;;;;;;17.24;86.33;101086.47;4997009;28;20030;-68
2023/09/01 09:31:06;;;;;;;12.73;10.50;;;;;;;17.24;87.28;101082.94;4988475;28;20022;-68
2023/09/01 09:33:33;;;;;;;12.07;10.13;;;;;;;17.27;86.29;101088.09;4982647;28;20470;-68
2023/09/01 09:35:59;;;;;;;12.20;10.55;;;;;;;17.35;86.98;101093.81;4995365;28;20502;-68
2023/09/01 09:38:47;;;;;;;12.52;10.00;;;;;;;17.50;86.35;101091.97;4988905;28;20032;-68
2023/09/01 09:41:13;;;;;;;8.48;7.68;;;;;;;17.51;84.56;101101.69;4987808;28;20041;-67
2023/09/01 09:43:46;;;;;;;11.93;10.00;;;;;;;17.50;85.04;101100.84;4986320;28;20023;-68
2023/09/01 09:46:13;;;;;;;10.60;9.13;;;;;;;17.49;86.29;101107.16;4985038;28;20044;-68
2023/09/01 09:48:40;;;;;;;9.57;8.57;;;;;;;17.41;84.92;101100.59;4991530;28;20385;-68
2023/09/01 09:51:10;;;;;;;10.55;9.38;;;;;;;17.46;86.13;101101.13;4990473;28;20068;-67
2023/09/01 09:53:37;;;;;;;10.70;9.65;;;;;;;17.47;86.61;101101.03;4991017;28;20042;-68
2023/09/01 09:56:14;;;;;;;10.73;9.63;;;;;;;17.52;86.84;101096.25;4987531;28;20501;-68
2023/09/01 09:58:40;;;;;;;11.00;9.30;;;;;;;17.50;86.85;101090.16;4987319;28;20034;-68
2023/09/01 10:01:21;;;;;;;9.73;8.70;;;;;;;17.57;85.97;101094.13;4989583;28;20157;-68
2023/09/01 10:03:47;;;;;;;9.82;8.77;;;;;;;17.60;87.08;101090.41;4990240;28;20022;-68
2023/09/01 10:06:15;;;;;;;10.02;8.88;;;;;;;17.67;86.70;101090.84;4986516;28;20033;-68
2023/09/01 10:08:41;;;;;;;9.93;8.15;;;;;;;17.75;84.44;101091.22;4988725;28;20469;-68
2023/09/01 10:11:08;;;;;;;10.30;9.30;;;;;;;17.82;85.23;101093.41;4991637;28;20064;-68
2023/09/01 10:13:34;;;;;;;10.00;9.05;;;;;;;17.83;85.87;101097.78;4989893;28;20038;-68
2023/09/01 10:16:01;;;;;;;9.65;8.65;;;;;;;17.84;86.07;101083.47;4984989;28;20033;-68
2023/09/01 10:18:27;;;;;;;9.23;8.13;;;;;;;17.87;84.79;101086.91;4988385;28;20108;-68
2023/09/01 10:20:53;;;;;;;11.27;8.95;;;;;;;17.93;86.86;101081.13;4992853;28;20476;-68
2023/09/01 10:23:19;;;;;;;10.52;8.15;;;;;;;17.94;87.18;101083.69;4992146;28;20046;-68
2023/09/01 10:26:14;;;;;;;7.97;7.13;;;;;;;17.99;85.00;101086.91;4987878;28;20034;-68
2023/09/01 10:29:01;;;;;;;9.52;7.10;;;;;;;17.95;85.35;101088.13;4989717;28;20026;-68
2023/09/01 10:31:33;;;;;;;8.00;7.25;;;;;;;17.87;86.65;101084.22;4987989;28;20022;-68
2023/09/01 10:34:05;;;;;;;8.17;7.37;;;;;;;17.90;85.51;101084.00;4992065;28;20040;-68
2023/09/01 10:36:31;;;;;;;;;;;;;;;17.96;84.43;101083.63;4995603;28;20436;-68
2023/09/01 10:39:03;;;;;;;10.65;7.88;;;;;;;17.78;86.09;101091.91;4990372;28;19922;-68
2023/09/01 10:41:56;;;;;;;8.68;7.88;;;;;;;17.78;88.01;101091.03;4988759;28;20509;-68
2023/09/01 10:44:21;;;;;;;8.25;7.18;;;;;;;17.80;86.73;101094.47;4985431;28;20065;-68
2023/09/01 10:46:47;;;;;;;7.57;6.88;;;;;;;17.94;86.60;101090.88;4986816;28;20026;-68
2023/09/01 10:49:12;;;;;;;7.80;7.00;;;;;;;18.05;86.70;101093.69;4985825;28;20042;-68
2023/09/01 10:51:39;;;;;;;8.70;7.57;;;;;;;18.20;87.03;101100.69;4986249;28;20038;-68
2023/09/01 10:54:14;;;;;;;7.20;6.50;;;;;;;18.45;85.82;101107.03;4990383;28;20026;-68
2023/09/01 10:56:56;;;;;;;7.53;6.72;;;;;;;18.40;86.14;101091.28;4986287;28;20087;-68
2023/09/01 10:59:37;;;;;;;7.57;6.88;;;;;;;18.51;87.49;101102.13;4984965;28;20058;-68
2023/09/01 11:02:27;;;;;;;7.72;6.40;;;;;;;18.60;85.98;101105.94;4983620;28;20512;-69
2023/09/01 11:04:53;;;;;;;6.35;5.75;;;;;;;18.54;85.16;101104.56;4990143;28;20576;-68
2023/09/01 11:07:18;;;;;;;6.63;5.90;;;;;;;18.71;85.21;101105.25;4985013;28;20030;-68
2023/09/01 11:09:47;;;;;;;7.30;6.60;;;;;;;18.72;83.30;101106.97;4993304;28;20036;-68
2023/09/01 11:12:13;;;;;;;7.78;7.07;;;;;;;18.73;85.18;101100.63;4986497;28;20045;-68
2023/09/01 11:14:51;;;;;;;6.80;6.20;;;;;;;18.83;85.20;101101.69;4987034;28;20413;-66
2023/09/01 11:17:31;;;;;;;7.20;6.50;;;;;;;19.05;84.50;101098.38;4987249;28;20113;-66
2023/09/01 11:19:56;;;;;;;5.43;4.93;;;;;;;19.14;83.44;101097.69;4988350;28;20081;-65
2023/09/01 11:22:22;;;;;;;7.80;7.00;;;;;;;19.33;87.25;101103.44;4988506;28;20477;-66
2023/09/01 11:24:47;;;;;;;6.95;6.10;;;;;;;19.41;83.58;101097.53;4984290;28;20058;-66